Wallingford, CT

2:07 AM EST on February 10, 2016 (GMT -0500)
Meriden Markham Municipal | | Change Station
CLOSE
Current Station
Airport
Location: Meriden,
Elevation: 102 ft
Nearby Weather Stations

Elev 102 ft 41.51 °N, 72.83 °W | Updated 14 minutes ago

Mostly Cloudy
Mostly Cloudy
22 °F
Feels Like 22 °F
N
0
Wind Variable Wind from North

Today
High -- | Low -- °F
--% Chance of Precip.
Yesterday
High -- | Low -- °F
Precip. -- in
Pressure 29.61 in
Visibility 7.0 miles
Clouds Mostly Cloudy 3800 ft
Dew Point 19 °F
Humidity 89%
Rainfall 0.00 in
Snow Depth Not available.
6:53 AM 5:18 PM
Waxing Crescent, 4% visible
METAR KMMK 100653Z AUTO 00000KT 7SM BKN038 M06/M07 A2960 RMK AO2 SLP026 I1000 T10561072 TSNO $
Pressure 29.61 in
Visibility 7.0 miles
Clouds Mostly Cloudy 3800 ft
Dew Point 19 °F
Humidity 89%
Rainfall 0.00 in
Snow Depth Not available.
6:53 AM 5:18 PM
Waxing Crescent, 4% visible
METAR KMMK 100653Z AUTO 00000KT 7SM BKN038 M06/M07 A2960 RMK AO2 SLP026 I1000 T10561072 TSNO $

10-Day Weather Forecast

Almanac

Astronomy

Feb. 10, 2016 Rise Set
Actual Time
Civil Twilight
Nautical Twilight
Astronomical Twilight
Moon
Length of Visible Light
Length of Day
Tomorrow will be .
, % of the Moon is Illuminated

Today's Extremes

State Highs State Lows

Community

WunderPhotos

Upload Photos

1,891,826 photos uploaded!

WunderBlog® & News

Nearby

Air Quality

  Air Quality AQ Index Pollutant
Not available.

Snow Depth

Station Depth Elevation

Earthquake Activity

City Distance Mag. Time & Date
Minimum magnitude displayed is 2.5.

Coastal Water Temperatures

Place Temperature

Stations

Nearby Weather Stations

Station Location Temp. Windchill Dew Point Humidity Wind Precip. Elev Updated Type
                   

Watches & Warnings

There are currently no watches in effect.